sensor_id;sensor_type;location;lat;lon;timestamp;pressure;altitude;pressure_sealevel;temperature;humidity
20043;BME280;10182;52.896;6.496;2023-04-26T00:04:44;101707.69;;;2.07;100.00
20043;BME280;10182;52.896;6.496;2023-04-26T00:09:47;101710.28;;;2.09;100.00
20043;BME280;10182;52.896;6.496;2023-04-26T00:14:50;101705.97;;;2.15;100.00
20043;BME280;10182;52.896;6.496;2023-04-26T00:19:52;101712.94;;;2.24;100.00
20043;BME280;10182;52.896;6.496;2023-04-26T00:24:55;101713.88;;;2.34;100.00
20043;BME280;10182;52.896;6.496;2023-04-26T00:29:59;101714.81;;;2.53;100.00
20043;BME280;10182;52.896;6.496;2023-04-26T00:35:02;101706.09;;;2.62;100.00
20043;BME280;10182;52.896;6.496;2023-04-26T00:40:05;101701.75;;;2.71;100.00
20043;BME280;10182;52.896;6.496;2023-04-26T00:45:08;101700.88;;;2.77;100.00
20043;BME280;10182;52.896;6.496;2023-04-26T00:50:10;101708.72;;;2.77;100.00
20043;BME280;10182;52.896;6.496;2023-04-26T00:55:12;101703.50;;;2.73;100.00
20043;BME280;10182;52.896;6.496;2023-04-26T01:00:17;101691.28;;;2.64;100.00
20043;BME280;10182;52.896;6.496;2023-04-26T01:05:18;101699.97;;;2.60;100.00
20043;BME280;10182;52.896;6.496;2023-04-26T01:10:20;101693.88;;;2.54;100.00
20043;BME280;10182;52.896;6.496;2023-04-26T01:15:23;101699.09;;;2.47;100.00
20043;BME280;10182;52.896;6.496;2023-04-26T01:20:27;101694.72;;;2.38;100.00
20043;BME280;10182;52.896;6.496;2023-04-26T01:25:30;101701.63;;;2.24;100.00
20043;BME280;10182;52.896;6.496;2023-04-26T01:30:32;101700.72;;;2.14;100.00
20043;BME280;10182;52.896;6.496;2023-04-26T01:35:34;101702.44;;;2.07;100.00
20043;BME280;10182;52.896;6.496;2023-04-26T01:40:37;101706.78;;;2.03;100.00
20043;BME280;10182;52.896;6.496;2023-04-26T01:45:38;101702.41;;;1.96;100.00
20043;BME280;10182;52.896;6.496;2023-04-26T01:50:40;101711.13;;;2.00;100.00
20043;BME280;10182;52.896;6.496;2023-04-26T01:55:43;101705.09;;;2.13;100.00
20043;BME280;10182;52.896;6.496;2023-04-26T02:00:45;101706.88;;;2.28;100.00
20043;BME280;10182;52.896;6.496;2023-04-26T02:05:47;101702.56;;;2.41;100.00
20043;BME280;10182;52.896;6.496;2023-04-26T02:10:50;101695.59;;;2.51;100.00
20043;BME280;10182;52.896;6.496;2023-04-26T02:15:51;101688.63;;;2.59;100.00
20043;BME280;10182;52.896;6.496;2023-04-26T02:20:53;101695.63;;;2.62;100.00
20043;BME280;10182;52.896;6.496;2023-04-26T02:25:56;101694.75;;;2.61;100.00
20043;BME280;10182;52.896;6.496;2023-04-26T02:30:58;101693.00;;;2.62;100.00
20043;BME280;10182;52.896;6.496;2023-04-26T02:36:01;101693.88;;;2.62;100.00
20043;BME280;10182;52.896;6.496;2023-04-26T02:41:04;101691.25;;;2.61;100.00
20043;BME280;10182;52.896;6.496;2023-04-26T02:46:06;101695.63;;;2.60;100.00
20043;BME280;10182;52.896;6.496;2023-04-26T02:51:08;101686.03;;;2.54;100.00
20043;BME280;10182;52.896;6.496;2023-04-26T02:56:11;101684.25;;;2.44;100.00
20043;BME280;10182;52.896;6.496;2023-04-26T03:01:13;101690.34;;;2.32;100.00
20043;BME280;10182;52.896;6.496;2023-04-26T03:06:14;101689.41;;;2.23;100.00
20043;BME280;10182;52.896;6.496;2023-04-26T03:11:17;101694.59;;;2.06;100.00
20043;BME280;10182;52.896;6.496;2023-04-26T03:16:19;101684.09;;;1.93;100.00
20043;BME280;10182;52.896;6.496;2023-04-26T03:21:21;101692.81;;;1.89;100.00
20043;BME280;10182;52.896;6.496;2023-04-26T03:26:24;101702.34;;;1.84;100.00
20043;BME280;10182;52.896;6.496;2023-04-26T03:31:26;101698.84;;;1.79;100.00
20043;BME280;10182;52.896;6.496;2023-04-26T03:36:28;101691.84;;;1.73;100.00
20043;BME280;10182;52.896;6.496;2023-04-26T03:41:31;101691.84;;;1.70;100.00
20043;BME280;10182;52.896;6.496;2023-04-26T03:46:35;101685.72;;;1.65;100.00
20043;BME280;10182;52.896;6.496;2023-04-26T03:51:36;101684.78;;;1.58;100.00
20043;BME280;10182;52.896;6.496;2023-04-26T03:56:40;101683.03;;;1.56;100.00
20043;BME280;10182;52.896;6.496;2023-04-26T04:01:41;101689.16;;;1.59;100.00
20043;BME280;10182;52.896;6.496;2023-04-26T04:06:43;101685.72;;;1.66;100.00
20043;BME280;10182;52.896;6.496;2023-04-26T04:11:46;101684.00;;;1.72;100.00
20043;BME280;10182;52.896;6.496;2023-04-26T04:16:48;101672.69;;;1.77;100.00
20043;BME280;10182;52.896;6.496;2023-04-26T04:21:50;101684.00;;;1.76;100.00
20043;BME280;10182;52.896;6.496;2023-04-26T04:26:53;101685.75;;;1.77;100.00
20043;BME280;10182;52.896;6.496;2023-04-26T04:31:55;101690.13;;;1.80;100.00
20043;BME280;10182;52.896;6.496;2023-04-26T04:36:57;101691.00;;;1.80;100.00
20043;BME280;10182;52.896;6.496;2023-04-26T04:42:00;101691.84;;;1.72;100.00
20043;BME280;10182;52.896;6.496;2023-04-26T04:47:01;101697.94;;;1.72;100.00
20043;BME280;10182;52.896;6.496;2023-04-26T04:52:03;101691.88;;;1.78;100.00
20043;BME280;10182;52.896;6.496;2023-04-26T04:57:07;101706.78;;;1.96;100.00
20043;BME280;10182;52.896;6.496;2023-04-26T05:02:08;101708.59;;;2.17;100.00
20043;BME280;10182;52.896;6.496;2023-04-26T05:07:10;101707.78;;;2.36;100.00
20043;BME280;10182;52.896;6.496;2023-04-26T05:12:13;101699.06;;;2.50;100.00
20043;BME280;10182;52.896;6.496;2023-04-26T05:17:15;101704.34;;;2.62;100.00
20043;BME280;10182;52.896;6.496;2023-04-26T05:22:17;101706.09;;;2.76;100.00
20043;BME280;10182;52.896;6.496;2023-04-26T05:27:21;101715.72;;;2.89;100.00
20043;BME280;10182;52.896;6.496;2023-04-26T05:32:23;101706.97;;;3.10;100.00
20043;BME280;10182;52.896;6.496;2023-04-26T05:37:25;101703.50;;;3.31;100.00
20043;BME280;10182;52.896;6.496;2023-04-26T05:42:28;101711.31;;;3.56;100.00
20043;BME280;10182;52.896;6.496;2023-04-26T05:47:30;101710.28;;;4.00;100.00
20043;BME280;10182;52.896;6.496;2023-04-26T05:52:32;101714.53;;;4.28;100.00
20043;BME280;10182;52.896;6.496;2023-04-26T05:57:35;101716.13;;;4.55;100.00
20043;BME280;10182;52.896;6.496;2023-04-26T06:02:37;101717.72;;;4.81;100.00
20043;BME280;10182;52.896;6.496;2023-04-26T06:07:38;101720.19;;;5.04;100.00
20043;BME280;10182;52.896;6.496;2023-04-26T06:12:41;101724.59;;;5.00;100.00
20043;BME280;10182;52.896;6.496;2023-04-26T06:17:43;101727.22;;;5.02;100.00
20043;BME280;10182;52.896;6.496;2023-04-26T06:22:45;101732.41;;;5.08;100.00
20043;BME280;10182;52.896;6.496;2023-04-26T06:27:48;101743.72;;;5.16;100.00
20043;BME280;10182;52.896;6.496;2023-04-26T06:32:50;101743.44;;;5.49;100.00
20043;BME280;10182;52.896;6.496;2023-04-26T06:37:52;101736.34;;;5.57;100.00
20043;BME280;10182;52.896;6.496;2023-04-26T06:42:55;101731.72;;;5.79;100.00
20043;BME280;10182;52.896;6.496;2023-04-26T06:47:56;101731.03;;;5.65;100.00
20043;BME280;10182;52.896;6.496;2023-04-26T06:53:00;101730.91;;;5.72;100.00
20043;BME280;10182;52.896;6.496;2023-04-26T06:58:03;101734.56;;;5.57;100.00
20043;BME280;10182;52.896;6.496;2023-04-26T07:03:04;101728.38;;;5.65;100.00
20043;BME280;10182;52.896;6.496;2023-04-26T07:08:06;101731.00;;;5.66;100.00
20043;BME280;10182;52.896;6.496;2023-04-26T07:13:09;101730.72;;;5.92;100.00
20043;BME280;10182;52.896;6.496;2023-04-26T07:18:11;101739.19;;;6.19;100.00
20043;BME280;10182;52.896;6.496;2023-04-26T07:23:13;101738.31;;;6.19;100.00
20043;BME280;10182;52.896;6.496;2023-04-26T07:28:16;101736.25;;;6.44;100.00
20043;BME280;10182;52.896;6.496;2023-04-26T07:33:18;101736.88;;;6.60;100.00
20043;BME280;10182;52.896;6.496;2023-04-26T07:38:19;101744.31;;;6.29;100.00
20043;BME280;10182;52.896;6.496;2023-04-26T07:43:22;101739.94;;;6.31;100.00
20043;BME280;10182;52.896;6.496;2023-04-26T07:48:24;101734.31;;;6.55;100.00
20043;BME280;10182;52.896;6.496;2023-04-26T07:53:26;101744.63;;;6.71;100.00
20043;BME280;10182;52.896;6.496;2023-04-26T07:58:29;101730.91;;;7.06;100.00
20043;BME280;10182;52.896;6.496;2023-04-26T08:03:32;101742.56;;;7.44;100.00
20043;BME280;10182;52.896;6.496;2023-04-26T08:08:34;101737.31;;;7.44;100.00
20043;BME280;10182;52.896;6.496;2023-04-26T08:13:43;101743.72;;;7.29;100.00
20043;BME280;10182;52.896;6.496;2023-04-26T08:18:45;101736.97;;;7.63;100.00
20043;BME280;10182;52.896;6.496;2023-04-26T08:23:47;101747.66;;;7.02;100.00
20043;BME280;10182;52.896;6.496;2023-04-26T08:28:50;101753.84;;;7.00;100.00
20043;BME280;10182;52.896;6.496;2023-04-26T08:33:52;101754.50;;;7.14;100.00
20043;BME280;10182;52.896;6.496;2023-04-26T08:38:53;101755.44;;;7.11;100.00
20043;BME280;10182;52.896;6.496;2023-04-26T08:43:58;101759.78;;;7.14;100.00
20043;BME280;10182;52.896;6.496;2023-04-26T08:49:11;101766.88;;;7.09;100.00
20043;BME280;10182;52.896;6.496;2023-04-26T08:54:15;101757.16;;;7.14;100.00
20043;BME280;10182;52.896;6.496;2023-04-26T08:59:19;101758.22;;;7.54;100.00
20043;BME280;10182;52.896;6.496;2023-04-26T09:04:21;101758.16;;;7.60;100.00
20043;BME280;10182;52.896;6.496;2023-04-26T09:09:24;101752.03;;;7.56;100.00
20043;BME280;10182;52.896;6.496;2023-04-26T09:14:29;101758.03;;;7.65;100.00
20043;BME280;10182;52.896;6.496;2023-04-26T09:19:34;101749.38;;;8.03;100.00
20043;BME280;10182;52.896;6.496;2023-04-26T09:24:45;101753.88;;;7.98;100.00
20043;BME280;10182;52.896;6.496;2023-04-26T09:30:02;101750.81;;;8.20;100.00
20043;BME280;10182;52.896;6.496;2023-04-26T09:35:05;101755.41;;;8.54;100.00
20043;BME280;10182;52.896;6.496;2023-04-26T09:40:17;101748.16;;;8.63;100.00
20043;BME280;10182;52.896;6.496;2023-04-26T09:45:20;101751.22;;;8.45;100.00
20043;BME280;10182;52.896;6.496;2023-04-26T09:50:25;101745.63;;;8.15;100.00
20043;BME280;10182;52.896;6.496;2023-04-26T09:55:28;101757.63;;;8.32;100.00
20043;BME280;10182;52.896;6.496;2023-04-26T10:00:32;101753.59;;;8.13;100.00
20043;BME280;10182;52.896;6.496;2023-04-26T10:05:35;101761.84;;;7.48;100.00
20043;BME280;10182;52.896;6.496;2023-04-26T10:10:38;101777.69;;;6.92;100.00
20043;BME280;10182;52.896;6.496;2023-04-26T10:15:42;101775.59;;;6.55;100.00
20043;BME280;10182;52.896;6.496;2023-04-26T10:20:47;101769.78;;;6.28;100.00
20043;BME280;10182;52.896;6.496;2023-04-26T10:25:53;101772.38;;;6.31;100.00
20043;BME280;10182;52.896;6.496;2023-04-26T10:30:57;101770.25;;;6.59;100.00
20043;BME280;10182;52.896;6.496;2023-04-26T10:36:05;101772.00;;;6.60;100.00
20043;BME280;10182;52.896;6.496;2023-04-26T10:41:26;101772.69;;;6.73;100.00
20043;BME280;10182;52.896;6.496;2023-04-26T10:46:39;101765.44;;;6.89;100.00
20043;BME280;10182;52.896;6.496;2023-04-26T10:52:07;101767.19;;;7.43;100.00
20043;BME280;10182;52.896;6.496;2023-04-26T10:57:10;101760.84;;;7.55;100.00
20043;BME280;10182;52.896;6.496;2023-04-26T11:02:13;101767.81;;;7.59;100.00
20043;BME280;10182;52.896;6.496;2023-04-26T11:07:15;101757.38;;;8.00;100.00
20043;BME280;10182;52.896;6.496;2023-04-26T11:12:17;101759.97;;;8.02;100.00
20043;BME280;10182;52.896;6.496;2023-04-26T11:17:20;101752.13;;;7.99;100.00
20043;BME280;10182;52.896;6.496;2023-04-26T11:22:21;101751.09;;;8.50;100.00
20043;BME280;10182;52.896;6.496;2023-04-26T11:27:26;101741.81;;;8.30;100.00
20043;BME280;10182;52.896;6.496;2023-04-26T11:32:30;101751.44;;;8.33;100.00
20043;BME280;10182;52.896;6.496;2023-04-26T11:37:33;101754.09;;;8.73;100.00
20043;BME280;10182;52.896;6.496;2023-04-26T11:42:34;101740.34;;;8.96;100.00
20043;BME280;10182;52.896;6.496;2023-04-26T11:47:38;101747.19;;;9.05;100.00
20043;BME280;10182;52.896;6.496;2023-04-26T11:52:40;101760.97;;;8.40;100.00
20043;BME280;10182;52.896;6.496;2023-04-26T11:57:42;101764.75;;;7.83;100.00
20043;BME280;10182;52.896;6.496;2023-04-26T12:02:45;101765.00;;;7.69;100.00
20043;BME280;10182;52.896;6.496;2023-04-26T12:07:51;101764.06;;;7.21;100.00
20043;BME280;10182;52.896;6.496;2023-04-26T12:12:54;101771.59;;;7.43;100.00
20043;BME280;10182;52.896;6.496;2023-04-26T12:18:00;101767.19;;;7.45;100.00
20043;BME280;10182;52.896;6.496;2023-04-26T12:23:07;101773.16;;;7.55;100.00
20043;BME280;10182;52.896;6.496;2023-04-26T12:28:10;101784.69;;;7.49;100.00
20043;BME280;10182;52.896;6.496;2023-04-26T12:33:14;101788.25;;;7.47;100.00
20043;BME280;10182;52.896;6.496;2023-04-26T12:38:17;101794.53;;;7.38;100.00
20043;BME280;10182;52.896;6.496;2023-04-26T12:43:19;101795.94;;;7.04;100.00
20043;BME280;10182;52.896;6.496;2023-04-26T12:48:24;101797.78;;;6.99;100.00
20043;BME280;10182;52.896;6.496;2023-04-26T12:53:26;101790.81;;;6.95;100.00
20043;BME280;10182;52.896;6.496;2023-04-26T12:58:29;101797.88;;;6.93;100.00
20043;BME280;10182;52.896;6.496;2023-04-26T13:03:32;101796.97;;;6.94;100.00
20043;BME280;10182;52.896;6.496;2023-04-26T13:08:34;101794.13;;;7.09;100.00
20043;BME280;10182;52.896;6.496;2023-04-26T13:13:35;101790.38;;;7.23;100.00
20043;BME280;10182;52.896;6.496;2023-04-26T13:18:38;101791.97;;;7.33;100.00
20043;BME280;10182;52.896;6.496;2023-04-26T13:23:40;101797.88;;;7.49;100.00
20043;BME280;10182;52.896;6.496;2023-04-26T13:28:42;101791.41;;;7.67;100.00
20043;BME280;10182;52.896;6.496;2023-04-26T13:33:45;101789.13;;;7.95;100.00
20043;BME280;10182;52.896;6.496;2023-04-26T13:38:48;101785.00;;;8.26;100.00
20043;BME280;10182;52.896;6.496;2023-04-26T13:43:51;101789.16;;;8.38;100.00
20043;BME280;10182;52.896;6.496;2023-04-26T13:48:54;101788.69;;;8.62;100.00
20043;BME280;10182;52.896;6.496;2023-04-26T13:53:56;101800.03;;;8.66;100.00
20043;BME280;10182;52.896;6.496;2023-04-26T13:58:59;101801.13;;;8.57;100.00
20043;BME280;10182;52.896;6.496;2023-04-26T14:04:04;101796.09;;;8.43;100.00
20043;BME280;10182;52.896;6.496;2023-04-26T14:09:06;101794.56;;;8.32;100.00
20043;BME280;10182;52.896;6.496;2023-04-26T14:14:09;101792.53;;;8.48;100.00
20043;BME280;10182;52.896;6.496;2023-04-26T14:19:12;101795.44;;;8.32;100.00
20043;BME280;10182;52.896;6.496;2023-04-26T14:24:15;101787.09;;;8.54;100.00
20043;BME280;10182;52.896;6.496;2023-04-26T14:29:16;101779.84;;;8.63;100.00
20043;BME280;10182;52.896;6.496;2023-04-26T14:34:19;101777.41;;;8.09;100.00
20043;BME280;10182;52.896;6.496;2023-04-26T14:39:22;101804.38;;;7.26;100.00
20043;BME280;10182;52.896;6.496;2023-04-26T14:44:24;101800.03;;;7.24;100.00
20043;BME280;10182;52.896;6.496;2023-04-26T14:49:27;101798.06;;;7.38;100.00
20043;BME280;10182;52.896;6.496;2023-04-26T14:54:29;101798.19;;;7.79;100.00
20043;BME280;10182;52.896;6.496;2023-04-26T14:59:32;101792.91;;;7.82;100.00
20043;BME280;10182;52.896;6.496;2023-04-26T15:04:35;101797.53;;;7.68;100.00
20043;BME280;10182;52.896;6.496;2023-04-26T15:09:37;101802.13;;;7.56;100.00
20043;BME280;10182;52.896;6.496;2023-04-26T15:14:38;101793.03;;;7.74;100.00
20043;BME280;10182;52.896;6.496;2023-04-26T15:19:42;101795.69;;;7.73;100.00
20043;BME280;10182;52.896;6.496;2023-04-26T15:24:43;101782.19;;;7.90;100.00
20043;BME280;10182;52.896;6.496;2023-04-26T15:29:45;101790.28;;;7.81;100.00
20043;BME280;10182;52.896;6.496;2023-04-26T15:34:48;101788.59;;;7.76;100.00
20043;BME280;10182;52.896;6.496;2023-04-26T15:39:50;101789.56;;;7.71;100.00
20043;BME280;10182;52.896;6.496;2023-04-26T15:44:52;101786.06;;;7.70;100.00
20043;BME280;10182;52.896;6.496;2023-04-26T15:49:59;101786.25;;;7.59;100.00
20043;BME280;10182;52.896;6.496;2023-04-26T15:55:02;101791.88;;;7.89;100.00
20043;BME280;10182;52.896;6.496;2023-04-26T16:00:07;101797.00;;;7.99;100.00
20043;BME280;10182;52.896;6.496;2023-04-26T16:05:14;101793.09;;;8.18;100.00
20043;BME280;10182;52.896;6.496;2023-04-26T16:10:16;101794.91;;;8.16;100.00
20043;BME280;10182;52.896;6.496;2023-04-26T16:15:18;101803.06;;;8.02;100.00
20043;BME280;10182;52.896;6.496;2023-04-26T16:20:21;101800.84;;;7.79;100.00
20043;BME280;10182;52.896;6.496;2023-04-26T16:25:23;101817.28;;;7.45;100.00
20043;BME280;10182;52.896;6.496;2023-04-26T16:30:25;101802.22;;;7.50;100.00
20043;BME280;10182;52.896;6.496;2023-04-26T16:35:28;101815.00;;;7.22;100.00
20043;BME280;10182;52.896;6.496;2023-04-26T16:40:29;101814.31;;;7.09;100.00
20043;BME280;10182;52.896;6.496;2023-04-26T16:45:31;101809.94;;;7.06;100.00
20043;BME280;10182;52.896;6.496;2023-04-26T16:50:34;101810.09;;;6.99;100.00
20043;BME280;10182;52.896;6.496;2023-04-26T16:55:36;101804.72;;;7.05;100.00
20043;BME280;10182;52.896;6.496;2023-04-26T17:00:38;101807.50;;;6.94;100.00
20043;BME280;10182;52.896;6.496;2023-04-26T17:05:42;101814.59;;;6.89;100.00
20043;BME280;10182;52.896;6.496;2023-04-26T17:10:49;101822.66;;;6.76;100.00
20043;BME280;10182;52.896;6.496;2023-04-26T17:15:52;101830.56;;;6.76;100.00
20043;BME280;10182;52.896;6.496;2023-04-26T17:20:56;101819.06;;;6.85;100.00
20043;BME280;10182;52.896;6.496;2023-04-26T17:25:57;101820.50;;;7.06;100.00
20043;BME280;10182;52.896;6.496;2023-04-26T17:31:02;101827.59;;;7.00;100.00
20043;BME280;10182;52.896;6.496;2023-04-26T17:36:06;101830.19;;;7.04;100.00
20043;BME280;10182;52.896;6.496;2023-04-26T17:41:10;101825.88;;;7.00;100.00
20043;BME280;10182;52.896;6.496;2023-04-26T17:46:11;101824.38;;;6.79;100.00
20043;BME280;10182;52.896;6.496;2023-04-26T17:51:15;101838.41;;;6.83;100.00
20043;BME280;10182;52.896;6.496;2023-04-26T17:56:16;101839.63;;;6.55;100.00
20043;BME280;10182;52.896;6.496;2023-04-26T18:01:18;101834.53;;;6.41;100.00
20043;BME280;10182;52.896;6.496;2023-04-26T18:06:21;101842.44;;;6.40;100.00
20043;BME280;10182;52.896;6.496;2023-04-26T18:11:27;101847.69;;;6.41;100.00
20043;BME280;10182;52.896;6.496;2023-04-26T18:16:28;101850.38;;;6.35;100.00
20043;BME280;10182;52.896;6.496;2023-04-26T18:21:32;101848.69;;;6.30;100.00
20043;BME280;10182;52.896;6.496;2023-04-26T18:26:34;101860.22;;;6.19;100.00
20043;BME280;10182;52.896;6.496;2023-04-26T18:31:37;101852.38;;;6.13;100.00
20043;BME280;10182;52.896;6.496;2023-04-26T18:36:40;101851.47;;;6.17;100.00
20043;BME280;10182;52.896;6.496;2023-04-26T18:41:42;101848.03;;;6.09;100.00
20043;BME280;10182;52.896;6.496;2023-04-26T18:46:44;101852.53;;;5.96;100.00
20043;BME280;10182;52.896;6.496;2023-04-26T18:51:47;101861.38;;;5.86;100.00
20043;BME280;10182;52.896;6.496;2023-04-26T18:56:49;101859.75;;;5.72;100.00
20043;BME280;10182;52.896;6.496;2023-04-26T19:01:50;101869.50;;;5.59;100.00
20043;BME280;10182;52.896;6.496;2023-04-26T19:06:53;101870.47;;;5.48;100.00
20043;BME280;10182;52.896;6.496;2023-04-26T19:11:55;101874.94;;;5.36;100.00
20043;BME280;10182;52.896;6.496;2023-04-26T19:16:57;101885.53;;;5.18;100.00
20043;BME280;10182;52.896;6.496;2023-04-26T19:22:00;101880.38;;;5.08;100.00
20043;BME280;10182;52.896;6.496;2023-04-26T19:27:02;101890.06;;;4.94;100.00
20043;BME280;10182;52.896;6.496;2023-04-26T19:32:04;101894.47;;;4.86;100.00
20043;BME280;10182;52.896;6.496;2023-04-26T19:37:07;101897.13;;;4.78;100.00
20043;BME280;10182;52.896;6.496;2023-04-26T19:42:09;101899.81;;;4.64;100.00
20043;BME280;10182;52.896;6.496;2023-04-26T19:47:11;101905.97;;;4.51;100.00
20043;BME280;10182;52.896;6.496;2023-04-26T19:52:14;101897.28;;;4.33;100.00
20043;BME280;10182;52.896;6.496;2023-04-26T19:57:16;101900.78;;;4.35;100.00
20043;BME280;10182;52.896;6.496;2023-04-26T20:02:18;101901.66;;;4.25;100.00
20043;BME280;10182;52.896;6.496;2023-04-26T20:07:21;101904.31;;;4.16;100.00
20043;BME280;10182;52.896;6.496;2023-04-26T20:12:23;101908.69;;;4.07;100.00
20043;BME280;10182;52.896;6.496;2023-04-26T20:17:25;101919.19;;;3.98;100.00
20043;BME280;10182;52.896;6.496;2023-04-26T20:22:30;101915.69;;;3.93;100.00
20043;BME280;10182;52.896;6.496;2023-04-26T20:27:32;101915.69;;;3.81;100.00
20043;BME280;10182;52.896;6.496;2023-04-26T20:32:34;101917.44;;;3.82;100.00
20043;BME280;10182;52.896;6.496;2023-04-26T20:37:37;101916.56;;;3.78;100.00
20043;BME280;10182;52.896;6.496;2023-04-26T20:42:39;101918.31;;;3.78;100.00
20043;BME280;10182;52.896;6.496;2023-04-26T20:47:41;101914.78;;;3.65;100.00
20043;BME280;10182;52.896;6.496;2023-04-26T20:52:44;101919.19;;;3.61;100.00
20043;BME280;10182;52.896;6.496;2023-04-26T20:57:46;101923.53;;;3.51;100.00
20043;BME280;10182;52.896;6.496;2023-04-26T21:02:47;101926.13;;;3.47;100.00
20043;BME280;10182;52.896;6.496;2023-04-26T21:07:50;101927.88;;;3.37;100.00
20043;BME280;10182;52.896;6.496;2023-04-26T21:12:52;101922.59;;;3.21;100.00
20043;BME280;10182;52.896;6.496;2023-04-26T21:17:54;101926.03;;;3.11;100.00
20043;BME280;10182;52.896;6.496;2023-04-26T21:22:57;101921.72;;;3.13;100.00
20043;BME280;10182;52.896;6.496;2023-04-26T21:27:58;101926.94;;;3.16;100.00
20043;BME280;10182;52.896;6.496;2023-04-26T21:33:00;101928.66;;;3.11;100.00
20043;BME280;10182;52.896;6.496;2023-04-26T21:38:04;101933.91;;;3.03;100.00
20043;BME280;10182;52.896;6.496;2023-04-26T21:43:05;101940.81;;;2.94;100.00
20043;BME280;10182;52.896;6.496;2023-04-26T21:48:07;101934.66;;;2.85;100.00
20043;BME280;10182;52.896;6.496;2023-04-26T21:53:10;101939.03;;;2.82;100.00
20043;BME280;10182;52.896;6.496;2023-04-26T21:58:12;101938.09;;;2.70;100.00
20043;BME280;10182;52.896;6.496;2023-04-26T22:03:13;101935.44;;;2.63;100.00
20043;BME280;10182;52.896;6.496;2023-04-26T22:08:17;101942.44;;;2.64;100.00
20043;BME280;10182;52.896;6.496;2023-04-26T22:13:18;101936.31;;;2.59;100.00
20043;BME280;10182;52.896;6.496;2023-04-26T22:18:20;101944.13;;;2.56;100.00
20043;BME280;10182;52.896;6.496;2023-04-26T22:23:23;101942.34;;;2.51;100.00
20043;BME280;10182;52.896;6.496;2023-04-26T22:28:25;101956.25;;;2.44;100.00
20043;BME280;10182;52.896;6.496;2023-04-26T22:33:27;101964.06;;;2.36;100.00
20043;BME280;10182;52.896;6.496;2023-04-26T22:38:30;101970.09;;;2.29;100.00
20043;BME280;10182;52.896;6.496;2023-04-26T22:43:31;101965.69;;;2.19;100.00
20043;BME280;10182;52.896;6.496;2023-04-26T22:48:33;101957.78;;;2.14;100.00
20043;BME280;10182;52.896;6.496;2023-04-26T22:53:36;101958.63;;;2.09;100.00
20043;BME280;10182;52.896;6.496;2023-04-26T22:58:38;101966.44;;;2.06;100.00
20043;BME280;10182;52.896;6.496;2023-04-26T23:03:40;101968.16;;;2.02;100.00
20043;BME280;10182;52.896;6.496;2023-04-26T23:08:43;101963.81;;;2.01;100.00
20043;BME280;10182;52.896;6.496;2023-04-26T23:13:47;101961.16;;;1.98;100.00
20043;BME280;10182;52.896;6.496;2023-04-26T23:18:51;101968.94;;;1.92;100.00
20043;BME280;10182;52.896;6.496;2023-04-26T23:23:54;101979.41;;;1.92;100.00
20043;BME280;10182;52.896;6.496;2023-04-26T23:28:56;101983.72;;;1.88;100.00
20043;BME280;10182;52.896;6.496;2023-04-26T23:33:58;101979.31;;;1.84;100.00
20043;BME280;10182;52.896;6.496;2023-04-26T23:39:01;101992.31;;;1.76;100.00
20043;BME280;10182;52.896;6.496;2023-04-26T23:44:03;101983.50;;;1.66;100.00
20043;BME280;10182;52.896;6.496;2023-04-26T23:49:05;101985.16;;;1.58;100.00
20043;BME280;10182;52.896;6.496;2023-04-26T23:54:08;101992.97;;;1.54;100.00
20043;BME280;10182;52.896;6.496;2023-04-26T23:59:09;101998.91;;;1.42;100.00
